Flight Track Log - Related Links

Times and Time Zones

All times are in EDT time to prevent confusion due to time zone crossing. See the N510SR flight status page for this flight to view local times or setup timezone preferences in your user account.


Time Position Orientation Groundspeed Altitude Reporting Facility
EDT Latitude Longitude Course Direction KTS MPH feet Rate Location/Type
Fri 06:43:12 PM 43.4800 -72.5747 233° Southwest 420 483 12,000  Level Boston Center
Fri 06:44:12 PM 43.4150 -72.6831 230° Southwest 398 458 15,100 3,092 Climbing Boston Center
Fri 06:45:22 PM 43.3333 -72.8225 231° Southwest 387 445 18,700 2,862 Climbing Boston Center
Fri 06:46:22 PM 43.2642 -72.9392 231° Southwest 397 457 21,300 1,478 Climbing Boston Center
Fri 06:47:36 PM 43.1886 -73.0694 232° Southwest 415 478 22,000 313 Climbing Boston Center
Fri 06:48:36 PM 43.0958 -73.2219 230° Southwest 433 498 22,000  Level Boston Center
Fri 06:49:37 PM 43.0219 -73.3544 233° Southwest 438 504 22,000  Level Boston Center
Fri 06:50:34 PM 42.9375 -73.4836 228° Southwest 446 513 22,000  Level Boston Center
Fri 06:51:35 PM 42.8569 -73.6269 233° Southwest 451 519 22,000  Level Boston Center
Fri 06:52:35 PM 42.7828 -73.7414 229° Southwest 445 512 22,000  Level Boston Center
Fri 06:53:36 PM 42.7144 -73.8756 235° Southwest 445 512 22,000  Level Boston Center
Fri 06:54:37 PM 42.6500 -74.0094 237° Southwest 445 512 22,000  Level Boston Center
Fri 06:55:35 PM 42.5769 -74.1600 237° Southwest 440 506 22,000  Level Boston Center
Fri 06:56:35 PM 42.5233 -74.2683 236° Southwest 434 499 22,000  Level Boston Center
Fri 06:57:48 PM 42.4433 -74.4292 236° Southwest 434 499 22,000  Level Boston Center
Fri 06:59:56 PM 42.2947 -74.7236 236° Southwest 437 503 22,000  Level New York Center
Fri 07:00:57 PM 42.2256 -74.8567 235° Southwest 437 503 22,000  Level New York Center
Fri 07:01:55 PM 42.1319 -74.9794 224° Southwest 432 497 22,000 -807 Level New York Center
Fri 07:02:56 PM 42.0350 -75.0711 215° Southwest 432 497 20,400 -1,488 Descending New York Center
Fri 07:03:56 PM 41.9344 -75.1453 209° Southwest 426 490 19,000 -1,119 Descending New York Center
Fri 07:04:54 PM 41.8444 -75.2117 209° Southwest 418 481 18,200 -1,513 Descending New York Center
Fri 07:05:55 PM 41.7458 -75.2858 209° Southwest 413 475 16,000 -2,311 Descending New York Center
Fri 07:06:56 PM 41.6431 -75.3619 209° Southwest 403 464 13,500 -2,723 Descending New York Center
Fri 07:07:54 PM 41.5531 -75.4281 209° Southwest 389 448 10,600 -2,571 Descending New York Center
Fri 07:08:55 PM 41.4800 -75.4839 210° Southwest 346 398 8,400 -1,289 Descending New York Center
Fri 07:09:55 PM 41.4103 -75.5094 195° South 297 342 8,000 -200 Descending New York Center
Fri 07:10:55 PM 41.3275 -75.4981 174° South 292 336 8,000 -250 Level New York Center
Fri 07:11:55 PM 41.2386 -75.4808 172° South 292 336 7,500 -689 Descending New York Center
Fri 07:12:57 PM 41.1600 -75.4669 172° South 292 336 6,600 -807 Descending New York Center
Fri 07:13:54 PM 41.0833 -75.4533 172° South 286 329 5,900 -821 Descending New York Center
Fri 07:14:54 PM 41.0153 -75.4378 170° South 281 323 5,000 -492 Descending New York Center
Fri 07:15:56 PM 40.9325 -75.4211 171° South 276 318 4,900 -492 Descending New York Center
Fri 07:16:56 PM 40.8606 -75.3969 166° South 276 318 4,000 -605 Descending New York Center
Fri 07:17:55 PM 40.8019 -75.3519 150° Southeast 252 290 3,700 -555 Descending New York Center
Fri 07:18:55 PM 40.7492 -75.3153 152° Southeast 224 258 2,900 -942 Descending New York Center
Fri 07:19:56 PM 40.7058 -75.3592 218° Southwest 178 205 1,800 -793 Descending New York Center
Fri 07:20:56 PM 40.6647 -75.3947 213° Southwest 184 212 1,300 4,678 Descending New York Center
Fri 07:21:54 PM 40.6217 -75.4328 214° Southwest 184 212 11,000 4,932 Climbing New York Center
Fri 07:22:54 PM 40.5783 -75.4708 214° Southwest 184 212 11,000  Level New York Center

Login

Don't have an account? Register now (free) for customized features, flight alerts, and more!